TimeCDT,TemperatureF,Dew PointF,Humidity,Sea Level PressureIn,VisibilityMPH,Wind Direction,Wind SpeedMPH,Gust SpeedMPH,PrecipitationIn,Events,Conditions,WindDirDegrees,DateUTC
12:53 AM,68.0,66.9,96,30.06,8.0,Calm,Calm,-,N/A,,Clear,0,2013-10-02 05:53:00
1:53 AM,68.0,66.0,93,30.06,9.0,Calm,Calm,-,N/A,,Partly Cloudy,0,2013-10-02 06:53:00
2:53 AM,68.0,66.0,93,30.06,9.0,Calm,Calm,-,N/A,,Mostly Cloudy,0,2013-10-02 07:53:00
3:53 AM,69.1,66.9,93,30.06,10.0,Calm,Calm,-,N/A,,Overcast,0,2013-10-02 08:53:00
4:53 AM,70.0,66.9,90,30.06,10.0,Calm,Calm,-,N/A,,Overcast,0,2013-10-02 09:53:00
5:53 AM,70.0,66.0,87,30.08,10.0,SSE,3.5,-,N/A,,Overcast,150,2013-10-02 10:53:00
6:53 AM,70.0,66.0,87,30.10,10.0,SE,3.5,-,N/A,,Overcast,140,2013-10-02 11:53:00
7:53 AM,70.0,66.9,90,30.11,10.0,SSW,3.5,-,N/A,,Overcast,200,2013-10-02 12:53:00
8:53 AM,72.0,66.0,81,30.12,10.0,South,5.8,-,N/A,,Clear,170,2013-10-02 13:53:00
9:53 AM,73.9,66.9,79,30.12,10.0,SSW,3.5,-,N/A,,Partly Cloudy,200,2013-10-02 14:53:00
10:53 AM,77.0,66.9,71,30.12,10.0,SSW,6.9,-,N/A,,Clear,200,2013-10-02 15:53:00
11:53 AM,81.0,66.9,62,30.10,10.0,Variable,3.5,-,N/A,,Clear,0,2013-10-02 16:53:00
12:53 PM,81.0,64.9,58,30.09,10.0,Calm,Calm,-,N/A,,Clear,0,2013-10-02 17:53:00
1:53 PM,82.9,66.0,56,30.06,10.0,Variable,4.6,-,N/A,,Clear,0,2013-10-02 18:53:00
2:53 PM,84.9,64.9,51,30.04,10.0,SW,4.6,-,N/A,,Mostly Cloudy,230,2013-10-02 19:53:00
3:53 PM,84.0,64.0,51,30.03,10.0,South,6.9,-,N/A,,Scattered Clouds,170,2013-10-02 20:53:00
4:53 PM,82.0,63.0,52,30.03,10.0,South,5.8,-,N/A,,Clear,170,2013-10-02 21:53:00
5:53 PM,81.0,64.9,58,30.04,10.0,SSE,5.8,-,N/A,,Clear,160,2013-10-02 22:53:00
6:53 PM,78.1,66.0,66,30.04,10.0,SSE,4.6,-,N/A,,Clear,150,2013-10-02 23:53:00
7:53 PM,77.0,66.0,69,30.04,10.0,South,5.8,-,N/A,,Scattered Clouds,170,2013-10-03 00:53:00
8:53 PM,75.9,66.0,71,30.06,10.0,Calm,Calm,-,N/A,,Partly Cloudy,0,2013-10-03 01:53:00
9:53 PM,73.9,66.0,76,30.06,10.0,Calm,Calm,-,N/A,,Scattered Clouds,0,2013-10-03 02:53:00
10:53 PM,73.0,66.0,79,30.06,10.0,Calm,Calm,-,N/A,,Clear,0,2013-10-03 03:53:00
11:53 PM,72.0,66.9,84,30.05,10.0,Calm,Calm,-,N/A,,Clear,0,2013-10-03 04:53:00